Time;durP1;ratioP1;P1;durP2;ratioP2;P2;SDS_P1;SDS_P2;PMS_P1;PMS_P2;Temp;Humidity;BMP_temperature;BMP_pressure;BME280_temperature;BME280_humidity;BME280_pressure;Samples;Min_cycle;Max_cycle;Signal;HPM_P1;HPM_P2
2022/09/29 00:01:12;;;;;;;6.50;5.30;;;7.90;99.90;;;-141.84;82.67;18176.09;5053037;28;20229;-66
2022/09/29 00:03:41;;;;;;;6.07;5.47;;;7.80;99.90;;;-141.84;83.05;18123.28;5053657;28;20421;-66
2022/09/29 00:06:15;;;;;;;6.83;6.13;;;7.80;99.90;;;-141.84;83.38;18123.28;5048921;28;20225;-65
2022/09/29 00:08:44;;;;;;;9.13;8.33;;;7.80;99.90;;;-141.84;83.54;18133.44;5033179;28;20225;-66
2022/09/29 00:11:15;;;;;;;11.37;10.27;;;7.70;99.90;;;-141.84;83.82;18105.00;5032850;28;20230;-66
2022/09/29 00:13:44;;;;;;;13.77;12.37;;;7.70;99.90;;;-141.84;83.84;18102.97;5032985;28;20222;-64
2022/09/29 00:16:13;;;;;;;14.30;12.80;;;7.70;99.90;;;-141.84;84.19;18105.00;5032933;28;20506;-64
2022/09/29 00:18:42;;;;;;;13.10;11.73;;;7.60;99.90;;;-141.84;84.05;18074.53;5037724;28;20304;-64
2022/09/29 00:21:13;;;;;;;11.93;10.60;;;7.60;99.90;;;-141.84;84.19;18088.75;5051999;28;20617;-65
2022/09/29 00:23:41;;;;;;;9.53;8.63;;;7.50;99.90;;;-141.84;84.61;18064.38;5052657;28;20225;-65
2022/09/29 00:26:12;;;;;;;9.33;8.43;;;7.40;99.90;;;-141.84;84.79;18076.56;5052781;28;20225;-64
2022/09/29 00:28:47;;;;;;;8.50;7.43;;;7.30;99.90;;;-141.84;84.81;18042.03;5052851;28;20725;-65
2022/09/29 00:31:16;;;;;;;7.57;6.77;;;7.20;99.90;;;-141.84;84.92;18017.66;5052366;28;20719;-64
2022/09/29 00:33:46;;;;;;;9.07;6.43;;;7.20;99.90;;;-141.84;84.61;18062.34;5052548;28;20206;-65
2022/09/29 00:36:17;;;;;;;8.03;6.73;;;7.10;99.90;;;-141.84;84.94;18025.78;5053207;28;20206;-64
2022/09/29 00:38:47;;;;;;;8.70;7.80;;;7.10;99.90;;;-141.84;85.08;18052.19;5052309;28;20233;-65
2022/09/29 00:41:20;;;;;;;7.97;6.93;;;7.00;99.90;;;-141.84;85.06;18058.28;5052558;28;20712;-64
2022/09/29 00:43:54;;;;;;;7.93;6.33;;;7.00;99.90;;;-141.84;85.08;18021.72;5052555;28;20251;-66
2022/09/29 00:46:39;;;;;;;6.33;5.73;;;7.00;99.90;;;-141.84;85.61;18005.47;5052251;28;20230;-64
2022/09/29 00:49:18;;;;;;;6.13;5.50;;;6.90;99.90;;;-141.84;85.97;17960.78;5052103;28;20593;-64
2022/09/29 00:51:54;;;;;;;6.23;5.20;;;6.80;99.90;;;-141.84;86.25;17993.28;5052592;28;20189;-65
2022/09/29 00:54:28;;;;;;;5.73;4.93;;;6.80;99.90;;;-141.84;86.92;18005.47;5052819;28;20185;-64
2022/09/29 00:57:01;;;;;;;5.50;4.80;;;6.80;99.90;;;-141.84;87.24;17964.84;5052668;28;20225;-65
2022/09/29 00:59:40;;;;;;;5.33;4.80;;;6.70;99.90;;;-141.84;87.09;17999.38;5052048;28;20225;-67
2022/09/29 01:02:08;;;;;;;7.03;5.63;;;6.70;99.90;;;-141.84;87.45;17934.38;5051805;28;20260;-65
2022/09/29 01:04:38;;;;;;;5.73;4.93;;;6.70;99.90;;;-141.84;87.69;17975.00;5052155;28;20229;-64
2022/09/29 01:07:09;;;;;;;8.13;5.50;;;6.70;99.90;;;-141.84;88.13;17942.50;5039962;28;20226;-64
2022/09/29 01:09:43;;;;;;;6.80;5.63;;;6.70;99.90;;;-141.84;88.10;17954.69;5032674;28;20213;-65
2022/09/29 01:12:11;;;;;;;7.97;5.87;;;6.70;99.90;;;-141.84;88.30;17958.75;5032226;28;20221;-66
2022/09/29 01:14:40;;;;;;;8.70;5.43;;;6.70;99.90;;;-141.84;88.33;17993.28;5032013;28;20241;-64
2022/09/29 01:17:08;;;;;;;6.20;5.00;;;6.70;99.90;;;-141.84;88.14;17975.00;5031901;28;20280;-64
2022/09/29 01:19:57;;;;;;;6.80;5.20;;;6.70;99.90;;;-141.84;88.19;17991.25;5043355;28;20229;-65
2022/09/29 01:23:06;;;;;;;7.73;5.57;;;6.70;99.90;;;-141.84;88.35;17960.78;5052087;28;20244;-65
2022/09/29 01:26:24;;;;;;;6.40;5.07;;;6.80;99.90;;;-141.84;88.12;17972.97;5051287;28;20233;-65
2022/09/29 01:29:14;;;;;;;7.40;5.57;;;6.80;99.90;;;-141.84;88.00;17972.97;5051458;28;20229;-64
2022/09/29 01:31:56;;;;;;;7.63;5.10;;;6.90;99.90;;;-141.84;88.16;17972.97;5051507;28;20275;-64
2022/09/29 01:34:37;;;;;;;7.30;5.00;;;6.80;99.90;;;-141.84;88.27;17981.09;5051660;28;20308;-65
2022/09/29 01:37:17;;;;;;;6.27;5.40;;;6.80;99.90;;;-141.84;88.72;17968.91;5051720;28;20232;-64
2022/09/29 01:39:59;;;;;;;7.37;5.50;;;6.80;99.90;;;-141.84;88.99;17940.47;5051571;28;20192;-65
2022/09/29 01:42:36;;;;;;;6.93;5.00;;;6.90;99.90;;;-141.84;88.70;17983.13;5051946;28;20213;-65
2022/09/29 01:45:15;;;;;;;6.43;5.23;;;7.00;99.90;;;-141.84;88.60;17942.50;5050846;28;20708;-65
2022/09/29 01:47:53;;;;;;;6.63;5.50;;;6.90;99.90;;;-141.84;88.72;17954.69;5051212;28;20221;-64
2022/09/29 01:50:29;;;;;;;6.90;5.27;;;6.90;99.90;;;-141.84;88.63;17944.53;5050980;28;20605;-64
2022/09/29 01:53:09;;;;;;;7.17;5.57;;;6.90;99.90;;;-141.84;88.80;17975.00;5051319;28;20229;-66
2022/09/29 01:55:45;;;;;;;5.87;4.87;;;7.00;99.90;;;-141.84;88.79;17977.03;5051059;28;20221;-63
2022/09/29 01:58:19;;;;;;;5.90;5.00;;;7.00;99.90;;;-141.84;88.81;17981.09;5051283;28;20583;-64
2022/09/29 02:00:56;;;;;;;5.97;5.20;;;7.10;99.90;;;-141.84;88.19;18005.47;5050893;28;20206;-64
2022/09/29 02:03:34;;;;;;;7.47;5.20;;;7.10;99.90;;;-141.84;87.65;17979.06;5051249;28;20185;-65
2022/09/29 02:06:10;;;;;;;7.47;5.63;;;7.10;99.90;;;-141.84;87.36;17950.63;5047282;28;20629;-64
2022/09/29 02:08:45;;;;;;;5.13;4.60;;;7.10;99.90;;;-141.84;87.22;17983.13;5030844;28;20228;-63
2022/09/29 02:11:16;;;;;;;7.20;5.40;;;7.00;99.90;;;-141.84;87.00;17970.94;5031135;28;20632;-65
2022/09/29 02:13:50;;;;;;;7.23;5.00;;;7.00;99.90;;;-141.84;86.62;17954.69;5031020;28;20229;-67
2022/09/29 02:16:26;;;;;;;6.93;5.00;;;7.00;99.90;;;-141.84;86.61;17940.47;5030776;28;20712;-63
2022/09/29 02:19:01;;;;;;;6.43;5.03;;;6.90;99.90;;;-141.84;87.04;17934.38;5036936;28;20201;-66
2022/09/29 02:21:29;;;;;;;6.27;5.13;;;6.80;99.90;;;-141.84;87.57;17928.28;5051144;28;20232;-64
2022/09/29 02:23:58;;;;;;;7.37;4.93;;;6.70;99.90;;;-141.84;87.86;17946.56;5050359;28;20420;-64
2022/09/29 02:26:33;;;;;;;7.67;5.37;;;6.60;99.90;;;-141.84;88.22;17966.88;5050600;28;20278;-66
2022/09/29 02:29:03;;;;;;;6.60;5.50;;;6.60;99.90;;;-141.84;88.30;17912.00;5050611;28;20236;-67
2022/09/29 02:31:32;;;;;;;6.00;4.87;;;6.60;99.90;;;-141.84;88.63;17922.16;5050548;28;20240;-63
2022/09/29 02:34:04;;;;;;;6.27;5.40;;;6.50;99.90;;;-141.84;88.88;17916.06;5050475;28;20209;-64
2022/09/29 02:36:47;;;;;;;7.00;5.70;;;6.50;99.90;;;-141.84;89.09;17899.81;5051065;28;20204;-65
2022/09/29 02:39:33;;;;;;;7.20;5.50;;;6.50;99.90;;;-141.84;89.16;17891.69;5050742;28;20213;-65
2022/09/29 02:42:18;;;;;;;8.30;6.00;;;6.40;99.90;;;-141.84;89.45;17920.13;5030484;28;20224;-66
2022/09/29 02:45:07;;;;;;;6.77;5.23;;;6.40;99.90;;;-141.84;89.77;17895.75;5029788;28;20771;-64
2022/09/29 02:47:51;;;;;;;7.90;6.03;;;6.20;99.90;;;-141.84;89.80;17893.72;5030161;28;20236;-64
2022/09/29 02:50:52;;;;;;;7.40;5.60;;;6.40;99.90;;;-141.84;89.73;17912.00;5048005;28;20225;-67
2022/09/29 02:53:41;;;;;;;6.97;5.70;;;6.30;99.90;;;-141.84;89.03;17928.28;5050300;28;20724;-64
2022/09/29 02:56:23;;;;;;;7.10;5.93;;;6.40;99.90;;;-141.84;88.46;17920.13;5050217;28;20712;-65
2022/09/29 02:59:00;;;;;;;8.00;6.00;;;6.50;99.90;;;-141.84;88.24;17895.75;5050370;28;20228;-66
2022/09/29 03:01:32;;;;;;;8.47;5.70;;;6.40;99.90;;;-141.84;87.99;17891.69;5049904;28;20225;-64
2022/09/29 03:04:01;;;;;;;7.77;6.07;;;6.30;99.90;;;-141.84;87.88;17912.00;5050595;28;20239;-64
2022/09/29 03:06:33;;;;;;;7.43;6.10;;;6.40;99.90;;;-141.84;87.97;17895.75;5043427;28;20182;-66
2022/09/29 03:09:01;;;;;;;8.27;5.60;;;6.30;99.90;;;-141.84;88.01;17916.06;5029902;28;20324;-67
2022/09/29 03:11:29;;;;;;;7.23;6.03;;;6.30;99.90;;;-141.84;88.20;17918.09;5030135;28;20226;-64
2022/09/29 03:13:57;;;;;;;8.10;5.93;;;6.20;99.90;;;-141.84;88.01;17895.75;5030170;28;20229;-64
2022/09/29 03:16:25;;;;;;;7.80;5.70;;;6.30;99.90;;;-141.84;87.98;17895.75;5030046;28;20230;-65
2022/09/29 03:18:54;;;;;;;10.37;6.43;;;6.20;99.90;;;-141.84;87.83;17907.94;5036366;28;20216;-63
2022/09/29 03:21:22;;;;;;;9.47;5.97;;;6.20;99.90;;;-141.84;88.22;17887.63;5050230;28;20209;-66
2022/09/29 03:23:51;;;;;;;8.77;5.97;;;6.10;99.90;;;-141.84;88.44;17879.50;5050062;28;20229;-65
2022/09/29 03:26:24;;;;;;;9.07;6.70;;;6.10;99.90;;;-141.84;88.29;17934.38;5050034;28;20231;-66
2022/09/29 03:28:53;;;;;;;8.67;6.80;;;6.20;99.90;;;-141.84;88.52;17861.22;5050150;28;20236;-66
2022/09/29 03:31:21;;;;;;;9.00;6.40;;;6.10;99.90;;;-141.84;88.82;17863.25;5049716;28;20236;-64
2022/09/29 03:33:50;;;;;;;7.93;6.23;;;6.10;99.90;;;-141.84;89.23;17895.75;5049800;28;20656;-66
2022/09/29 03:36:18;;;;;;;11.20;7.87;;;6.10;99.90;;;-141.84;89.41;17883.56;5049841;28;20212;-65
2022/09/29 03:38:46;;;;;;;9.83;6.60;;;6.10;99.90;;;-141.84;89.41;17895.75;5049907;28;20221;-64
2022/09/29 03:41:15;;;;;;;8.00;6.27;;;6.10;99.90;;;-141.84;89.45;17883.56;5049772;28;20225;-65
2022/09/29 03:43:43;;;;;;;9.13;6.40;;;6.40;99.90;;;-141.84;89.52;17907.94;5049980;28;20236;-66
2022/09/29 03:46:11;;;;;;;7.17;5.60;;;6.10;99.90;;;-141.84;89.90;17875.44;5049724;28;20233;-66
2022/09/29 03:48:40;;;;;;;9.20;6.83;;;6.20;99.90;;;-141.84;90.16;17897.78;5050214;28;20216;-64
2022/09/29 03:51:09;;;;;;;7.73;6.47;;;6.20;99.90;;;-141.84;90.39;17891.69;5049670;28;20240;-64
2022/09/29 03:53:37;;;;;;;10.20;6.87;;;6.20;99.90;;;-141.84;90.45;17879.50;5049236;28;20783;-65
2022/09/29 03:56:05;;;;;;;8.53;6.17;;;6.20;99.90;;;-141.84;90.48;17893.72;5053059;28;20237;-65
2022/09/29 03:58:36;;;;;;;6.87;5.87;;;6.20;99.90;;;-141.84;90.55;17863.25;5053364;28;20225;-64
2022/09/29 04:01:04;;;;;;;7.90;6.27;;;6.10;99.90;;;-141.84;90.75;17875.44;5053099;28;20229;-65
2022/09/29 04:03:33;;;;;;;8.30;6.43;;;6.10;99.90;;;-141.84;91.05;17901.84;5053819;28;20225;-65
2022/09/29 04:06:01;;;;;;;12.23;6.43;;;6.10;99.90;;;-141.84;91.11;17875.44;5049392;28;20229;-65
2022/09/29 04:08:30;;;;;;;9.33;6.53;;;6.10;99.90;;;-141.84;90.96;17909.97;5033149;28;20586;-64
2022/09/29 04:10:58;;;;;;;8.30;5.83;;;6.20;99.90;;;-141.84;90.55;17881.53;5032961;28;20225;-64
2022/09/29 04:13:26;;;;;;;7.57;5.97;;;6.30;99.90;;;-141.84;90.71;17879.50;5032897;28;20249;-64
2022/09/29 04:15:58;;;;;;;7.70;5.77;;;6.10;99.90;;;-141.84;90.80;17873.41;5032742;28;20202;-65
2022/09/29 04:18:27;;;;;;;8.03;5.70;;;6.20;99.90;;;-141.84;91.03;17863.25;5035911;28;20190;-62
2022/09/29 04:20:59;;;;;;;8.80;6.37;;;6.20;99.90;;;-141.84;90.97;17861.22;5052776;28;20229;-65
2022/09/29 04:23:29;;;;;;;9.63;6.20;;;6.20;99.90;;;-141.84;90.94;17857.16;5052616;28;20275;-64
2022/09/29 04:25:58;;;;;;;10.63;6.27;;;6.10;99.90;;;-141.84;91.29;17899.81;5052712;28;20228;-64
2022/09/29 04:28:26;;;;;;;9.10;6.83;;;6.10;99.90;;;-141.84;91.51;17869.34;5053058;28;20240;-63
2022/09/29 04:30:55;;;;;;;8.47;6.67;;;6.10;99.90;;;-141.84;91.39;17871.38;5052461;28;20212;-64
2022/09/29 04:33:23;;;;;;;8.17;6.43;;;6.10;99.90;;;-141.84;91.25;17842.94;5052969;28;20202;-64
2022/09/29 04:35:51;;;;;;;8.17;6.67;;;6.10;99.90;;;-141.84;91.52;17849.03;5052149;28;20320;-64
2022/09/29 04:38:19;;;;;;;9.80;6.63;;;6.10;99.90;;;-141.84;91.58;17883.56;5052602;28;20237;-64
2022/09/29 04:40:48;;;;;;;8.17;6.77;;;6.00;99.90;;;-141.84;91.83;17885.59;5052187;28;20747;-65
2022/09/29 04:43:16;;;;;;;9.23;7.13;;;6.00;99.90;;;-141.84;91.63;17875.44;5052320;28;20237;-64
2022/09/29 04:45:44;;;;;;;11.70;6.80;;;6.00;99.90;;;-141.84;91.34;17877.47;5052457;28;20208;-64
2022/09/29 04:48:13;;;;;;;10.10;6.63;;;6.00;99.90;;;-141.84;91.40;17875.44;5052587;28;20239;-64
2022/09/29 04:50:42;;;;;;;9.63;6.10;;;6.00;99.90;;;-141.84;91.39;17842.94;5052216;28;20720;-65
2022/09/29 04:53:12;;;;;;;9.90;6.23;;;6.00;99.90;;;-141.84;91.57;17867.31;5052156;28;20229;-63
2022/09/29 04:55:40;;;;;;;9.30;6.23;;;6.00;99.90;;;-141.84;91.39;17842.94;5052211;28;20225;-65
2022/09/29 04:58:08;;;;;;;9.20;7.03;;;6.00;99.90;;;-141.84;91.23;17842.94;5052217;28;20233;-64
2022/09/29 05:00:36;;;;;;;10.20;7.30;;;6.00;99.90;;;-141.84;91.03;17859.19;5052458;28;20297;-63
2022/09/29 05:03:04;;;;;;;10.57;6.80;;;6.10;99.90;;;-141.84;90.89;17847.00;5051994;28;20257;-65
2022/09/29 05:05:34;;;;;;;10.77;6.97;;;6.00;99.90;;;-141.84;90.79;17853.09;5051501;28;20752;-65
2022/09/29 05:08:04;;;;;;;10.67;7.37;;;6.00;99.90;;;-141.84;90.69;17832.78;5032032;28;20226;-64
2022/09/29 05:10:32;;;;;;;10.43;7.00;;;6.00;99.90;;;-141.84;90.65;17838.88;5032251;28;20229;-65
2022/09/29 05:13:00;;;;;;;9.87;7.67;;;6.00;99.90;;;-141.84;90.18;17842.94;5032100;28;20405;-64
2022/09/29 05:15:28;;;;;;;10.50;7.80;;;6.00;99.90;;;-141.84;90.12;17844.97;5032607;28;20245;-63
2022/09/29 05:17:56;;;;;;;9.03;7.17;;;6.00;99.90;;;-141.84;90.06;17865.28;5031708;28;20233;-68
2022/09/29 05:20:24;;;;;;;10.53;7.23;;;6.00;99.90;;;-141.84;90.21;17830.75;5049940;28;20753;-68
2022/09/29 05:22:58;;;;;;;11.23;6.83;;;6.00;99.90;;;-141.84;90.25;17853.09;5051356;28;20229;-68
2022/09/29 05:25:27;;;;;;;11.03;7.13;;;5.90;99.90;;;-141.84;90.48;17814.50;5051487;28;20224;-68
2022/09/29 05:27:57;;;;;;;10.27;6.80;;;6.00;99.90;;;-141.84;90.79;17840.91;5051913;28;20205;-68
2022/09/29 05:30:25;;;;;;;9.53;7.13;;;6.00;99.90;;;-141.84;90.44;17810.44;5051816;28;20525;-68
2022/09/29 05:32:53;;;;;;;9.90;7.73;;;6.00;99.90;;;-141.84;90.47;17867.31;5051030;28;20222;-68
2022/09/29 05:35:25;;;;;;;11.67;7.90;;;6.00;99.90;;;-141.84;90.39;17859.19;5051379;28;20240;-69
2022/09/29 05:37:54;;;;;;;10.67;7.40;;;6.10;99.90;;;-141.84;90.25;17857.16;5051238;28;20233;-68
2022/09/29 05:40:23;;;;;;;10.17;7.97;;;6.10;99.90;;;-141.84;90.73;17851.06;5051410;28;20228;-68
2022/09/29 05:42:52;;;;;;;11.17;7.97;;;6.10;99.90;;;-141.84;90.64;17832.78;5051194;28;20636;-69
2022/09/29 05:45:20;;;;;;;12.30;7.93;;;6.10;99.90;;;-141.84;90.64;17875.44;5051766;28;20213;-68
2022/09/29 05:47:48;;;;;;;10.60;7.97;;;6.20;99.90;;;-141.84;90.25;17865.28;5050981;28;20225;-67
2022/09/29 05:50:17;;;;;;;11.67;7.63;;;6.20;99.90;;;-141.84;90.34;17869.34;5050855;28;20236;-68
2022/09/29 05:52:48;;;;;;;12.63;8.10;;;6.20;99.90;;;-141.84;90.49;17879.50;5051060;28;20720;-69
2022/09/29 05:55:16;;;;;;;12.50;8.10;;;6.30;99.90;;;-141.84;90.94;17867.31;5051475;28;20232;-66
2022/09/29 05:57:49;;;;;;;13.23;8.93;;;6.30;99.90;;;-141.84;90.86;17883.56;5051171;28;20209;-67
2022/09/29 06:00:17;;;;;;;10.73;8.13;;;6.40;99.90;;;-141.84;91.01;17853.09;5051666;28;20241;-67
2022/09/29 06:02:45;;;;;;;14.43;8.03;;;6.50;99.90;;;-141.84;91.10;17853.09;5050647;28;20221;-67
2022/09/29 06:05:13;;;;;;;11.30;7.67;;;6.50;99.90;;;-141.84;91.20;17903.88;5050818;28;20237;-67
2022/09/29 06:07:41;;;;;;;9.90;7.43;;;6.60;99.90;;;-141.84;91.23;17893.72;5033606;28;20296;-68
2022/09/29 06:10:10;;;;;;;12.33;8.20;;;6.80;99.90;;;-141.84;91.16;17918.09;5031143;28;20229;-68
2022/09/29 06:12:38;;;;;;;11.20;7.63;;;6.90;99.90;;;-141.84;90.93;17932.34;5031804;28;20607;-67
2022/09/29 06:15:08;;;;;;;11.20;7.73;;;7.10;99.90;;;-141.84;91.02;17907.94;5030942;28;20233;-68
2022/09/29 06:17:37;;;;;;;11.40;7.37;;;7.20;99.90;;;-141.84;90.80;17907.94;5029860;28;20264;-68
2022/09/29 06:20:07;;;;;;;10.07;7.83;;;7.30;99.90;;;-141.84;90.87;17916.06;5046355;28;20233;-68
2022/09/29 06:22:35;;;;;;;12.07;7.77;;;7.40;99.90;;;-141.84;90.67;17914.03;5050745;28;20692;-68
2022/09/29 06:25:03;;;;;;;10.93;7.83;;;7.50;99.90;;;-141.84;89.80;17922.16;5050562;28;20295;-67
2022/09/29 06:27:31;;;;;;;10.13;7.47;;;7.50;99.90;;;-141.84;89.26;17932.34;5050602;28;20570;-68
2022/09/29 06:29:59;;;;;;;9.67;7.50;;;7.60;99.90;;;-141.84;89.08;17942.50;5050406;28;20677;-68
2022/09/29 06:32:29;;;;;;;13.00;7.57;;;7.70;99.90;;;-141.84;88.73;17962.81;5050151;28;20232;-68
2022/09/29 06:37:45;;;;;;;9.43;7.37;;;7.80;99.90;;;-141.84;89.31;18003.44;5050432;28;20666;-67
2022/09/29 06:40:13;;;;;;;12.27;7.60;;;8.20;99.90;;;-141.84;89.11;18011.56;5050793;28;20225;-67
2022/09/29 06:42:41;;;;;;;10.83;7.57;;;8.30;99.90;;;-141.84;87.10;18021.72;5050495;28;20255;-68
2022/09/29 06:45:11;;;;;;;8.97;6.87;;;8.50;99.90;;;-141.84;85.77;18021.72;5050937;28;20248;-69
2022/09/29 06:47:40;;;;;;;9.37;6.40;;;8.60;99.90;;;-141.84;85.73;18019.69;5050007;28;20252;-67
2022/09/29 06:50:09;;;;;;;9.97;7.30;;;8.60;99.90;;;-141.84;85.22;18048.13;5049873;28;20237;-67
2022/09/29 06:52:50;;;;;;;9.10;6.97;;;8.70;99.90;;;-141.84;84.86;18050.16;5050766;28;20233;-64
2022/09/29 06:55:31;;;;;;;8.27;6.93;;;8.70;99.90;;;-141.84;83.11;18021.72;5050391;28;20225;-64
2022/09/29 06:57:59;;;;;;;9.13;6.90;;;8.80;99.90;;;-141.84;82.22;18082.66;5050398;28;20209;-64
2022/09/29 07:00:33;;;;;;;8.07;7.20;;;8.80;99.90;;;-141.84;81.29;18139.53;5050749;28;20192;-63
2022/09/29 07:03:02;;;;;;;8.07;6.57;;;8.90;99.90;;;-141.84;82.08;18098.91;5049778;28;20234;-64
2022/09/29 07:05:31;;;;;;;7.50;6.33;;;8.90;99.90;;;-141.84;81.85;18135.47;5049872;28;20671;-64
2022/09/29 07:08:00;;;;;;;8.73;6.97;;;9.00;99.90;;;-141.84;82.05;18145.63;5030533;28;20296;-65
2022/09/29 07:10:28;;;;;;;9.03;6.83;;;9.10;99.90;;;-141.84;81.14;18188.28;5030189;28;20226;-65
2022/09/29 07:12:56;;;;;;;8.37;5.97;;;9.20;99.90;;;-141.84;79.40;18161.88;5028905;28;20198;-64
2022/09/29 07:15:30;;;;;;;7.47;6.67;;;9.30;99.90;;;-141.84;78.65;18226.88;5029542;28;20202;-65
2022/09/29 07:17:59;;;;;;;7.57;6.60;;;9.40;99.90;;;-141.84;77.95;18259.41;5029444;28;20233;-64
2022/09/29 07:20:31;;;;;;;7.07;5.83;;;9.50;99.90;;;-141.84;77.80;18283.78;5047711;28;20344;-64
2022/09/29 07:22:59;;;;;;;9.17;6.13;;;9.60;99.90;;;-141.84;77.05;18306.13;5049136;28;20390;-64
2022/09/29 07:25:27;;;;;;;7.77;6.20;;;9.60;99.90;;;-141.84;74.16;18401.59;5049273;28;20286;-68
2022/09/29 07:28:15;;;;;;;6.63;5.70;;;9.70;99.90;;;-141.84;73.99;18417.84;5049304;28;20311;-68
2022/09/29 07:30:43;;;;;;;6.47;5.40;;;9.80;99.90;;;-141.84;72.64;18495.06;5052268;28;20205;-68
2022/09/29 07:33:11;;;;;;;7.87;6.17;;;9.80;99.90;;;-141.84;72.24;18519.44;5053505;28;20232;-67
2022/09/29 07:35:41;;;;;;;9.43;6.50;;;9.80;99.90;;;-141.84;71.08;18560.06;5052836;28;20586;-68
2022/09/29 07:38:09;;;;;;;9.37;7.37;;;10.00;99.90;;;-141.84;69.76;18619.00;5052992;28;20232;-68
2022/09/29 07:40:37;;;;;;;8.60;7.30;;;10.10;99.90;;;-141.84;70.35;18631.19;5053096;28;20225;-67
2022/09/29 07:43:06;;;;;;;8.73;7.50;;;10.10;99.90;;;-141.84;69.55;18659.63;5052788;28;20231;-68
2022/09/29 07:45:35;;;;;;;9.37;6.90;;;10.20;99.90;;;-141.84;70.07;18663.69;5053067;28;20221;-67
2022/09/29 07:48:03;;;;;;;7.50;6.70;;;10.40;99.90;;;-141.84;69.95;18688.06;5052556;28;20249;-67
2022/09/29 07:50:31;;;;;;;7.77;6.77;;;10.50;99.90;;;-141.84;69.54;18710.44;5052309;28;20240;-68
2022/09/29 07:53:01;;;;;;;8.37;6.30;;;10.60;99.90;;;-141.84;68.50;18757.16;5052426;28;20234;-67
2022/09/29 07:55:29;;;;;;;7.13;6.20;;;10.70;99.90;;;-141.84;67.20;18870.94;5052552;28;20267;-68
2022/09/29 07:57:57;;;;;;;10.07;7.27;;;10.80;99.90;;;-141.84;67.66;18903.44;5052534;28;20598;-68
2022/09/29 08:00:25;;;;;;;6.53;5.87;;;10.80;99.90;;;-141.84;68.10;18844.53;5053064;28;20197;-67
2022/09/29 08:02:53;;;;;;;6.70;6.00;;;10.90;99.90;;;-141.84;68.19;18905.47;5052348;28;20829;-67
2022/09/29 08:05:21;;;;;;;8.07;6.70;;;11.00;99.90;;;-141.84;67.88;18866.88;5052001;28;20235;-67
2022/09/29 08:07:51;;;;;;;8.37;6.70;;;11.10;99.90;;;-141.84;66.55;18984.72;5034429;28;20233;-66
2022/09/29 08:10:21;;;;;;;7.57;6.70;;;11.30;99.90;;;-141.84;66.77;18990.81;5032403;28;20229;-67
2022/09/29 08:12:49;;;;;;;8.70;6.93;;;11.30;99.90;;;-141.84;66.55;19013.16;5032415;28;20205;-68
2022/09/29 08:15:17;;;;;;;8.93;7.53;;;11.40;99.90;;;-141.84;66.30;19035.53;5032834;28;20202;-67
2022/09/29 08:17:45;;;;;;;8.40;7.27;;;11.40;99.90;;;-141.84;66.13;19053.81;5038690;28;20636;-67
2022/09/29 08:20:13;;;;;;;8.57;6.93;;;11.50;99.90;;;-141.84;65.67;19108.69;5051939;28;20225;-68
2022/09/29 08:22:41;;;;;;;6.90;6.20;;;11.50;99.90;;;-141.84;65.91;19106.66;5052175;28;20316;-68
2022/09/29 08:25:10;;;;;;;8.63;7.13;;;11.60;99.90;;;-141.84;64.44;19224.50;5051892;28;20679;-68
2022/09/29 08:27:39;;;;;;;7.10;6.40;;;11.60;99.90;;;-141.84;64.78;19208.25;5052775;28;20409;-68
2022/09/29 08:30:21;;;;;;;8.53;6.70;;;11.70;99.90;;;-141.84;64.28;19238.72;5052096;28;20210;-66
2022/09/29 08:32:52;;;;;;;7.93;6.20;;;11.70;99.90;;;-141.84;64.10;19275.31;5051494;28;20225;-67
2022/09/29 08:35:20;;;;;;;9.07;6.50;;;11.70;99.90;;;-141.84;63.76;19315.94;5051499;28;20224;-67
2022/09/29 08:37:48;;;;;;;6.80;6.00;;;11.80;99.90;;;-141.84;63.33;19372.84;5051831;28;20429;-68
2022/09/29 08:40:17;;;;;;;7.07;6.33;;;11.90;99.90;;;-141.84;62.83;19395.19;5051202;28;20658;-67
2022/09/29 08:43:04;;;;;;;9.40;7.23;;;11.90;99.90;;;-141.84;63.02;19441.94;5051582;28;20198;-67
2022/09/29 08:45:41;;;;;;;6.97;6.23;;;12.00;99.90;;;-141.84;61.57;19539.47;5051783;28;20205;-67
2022/09/29 08:48:27;;;;;;;7.07;6.37;;;12.10;99.90;;;-141.84;62.37;19488.69;5051578;28;20288;-68
2022/09/29 08:50:59;;;;;;;9.57;7.07;;;12.10;99.90;;;-141.84;62.43;19480.53;5051632;28;20233;-68
2022/09/29 08:53:32;;;;;;;8.50;6.00;;;12.10;99.90;;;-141.84;62.58;19490.72;5051659;28;20672;-68
2022/09/29 08:56:05;;;;;;;7.87;6.90;;;12.20;99.90;;;-141.84;62.40;19535.41;5051586;28;20728;-67
2022/09/29 08:58:38;;;;;;;7.90;6.53;;;12.30;99.90;;;-141.84;61.76;19565.91;5051646;28;20225;-68
2022/09/29 09:01:24;;;;;;;8.03;6.30;;;12.30;99.90;;;-141.84;61.89;19543.53;5050992;28;20750;-67
2022/09/29 09:04:31;;;;;;;7.83;6.90;;;12.30;99.90;;;-141.84;61.90;19565.91;5051347;28;20600;-67
2022/09/29 09:07:15;;;;;;;7.53;6.57;;;12.50;99.90;;;-141.84;61.14;19624.84;5039915;28;20202;-69
2022/09/29 09:10:10;;;;;;;7.70;6.40;;;12.50;99.90;;;-141.84;60.16;19689.88;5031323;28;20217;-67
2022/09/29 09:13:14;;;;;;;6.30;5.70;;;12.50;99.90;;;-141.84;60.64;19659.38;5031957;28;20182;-68
2022/09/29 09:16:16;;;;;;;6.80;5.40;;;12.60;99.90;;;-141.84;60.54;19718.31;5030615;28;20233;-67
2022/09/29 09:19:09;;;;;;;6.70;6.10;;;12.80;99.90;;;-141.84;59.62;19779.28;5035737;28;20204;-69
2022/09/29 09:21:42;;;;;;;7.20;5.97;;;12.90;99.90;;;-141.84;58.39;19927.66;5050886;28;20591;-67
2022/09/29 09:24:17;;;;;;;7.07;5.50;;;13.00;99.90;;;-141.84;58.66;19903.25;5051174;28;20207;-68
2022/09/29 09:26:52;;;;;;;6.47;5.85;;;13.10;99.90;;;-141.84;58.44;19945.94;5050979;28;20249;-67
2022/09/29 09:29:30;;;;;;;6.23;5.40;;;13.20;99.90;;;-141.84;58.34;19970.34;5050710;28;20708;-67
2022/09/29 09:32:12;;;;;;;8.63;6.13;;;13.30;99.90;;;-141.84;57.70;19943.91;5050607;28;20723;-68
2022/09/29 09:34:48;;;;;;;6.00;5.50;;;13.10;99.90;;;-141.84;57.15;19960.16;5050565;28;20660;-69
2022/09/29 09:37:21;;;;;;;6.90;5.30;;;12.90;99.90;;;-141.84;57.49;19952.03;5050984;28;20241;-69
2022/09/29 09:39:59;;;;;;;6.43;5.27;;;13.00;99.90;;;-141.84;56.36;20053.66;5050840;28;20621;-69
2022/09/29 09:42:34;;;;;;;6.70;5.57;;;13.10;99.90;;;-141.84;57.25;19992.69;5050684;28;20672;-68
2022/09/29 09:45:13;;;;;;;6.85;5.35;;;13.10;99.90;;;-141.84;58.99;19917.50;5050275;28;20228;-69
2022/09/29 09:47:51;;;;;;;7.20;6.10;;;12.90;99.90;;;-141.84;58.94;19901.22;5049976;28;20672;-68
2022/09/29 09:50:24;;;;;;;6.43;5.80;;;12.90;99.90;;;-141.84;57.57;19956.09;5050507;28;20225;-67
2022/09/29 09:52:57;;;;;;;6.97;5.43;;;13.00;99.90;;;-141.84;56.93;19996.75;5050400;28;20459;-69
2022/09/29 09:55:27;;;;;;;5.60;5.10;;;13.10;99.90;;;-141.84;56.01;20092.28;5051312;28;20221;-67
2022/09/29 09:58:31;;;;;;;5.85;5.28;;;13.40;99.90;;;-141.84;54.81;20185.78;5050519;28;20201;-67
2022/09/29 10:01:03;;;;;;;6.28;5.03;;;13.70;99.90;;;-141.84;53.82;20256.91;5049582;28;20247;-68
2022/09/29 10:03:34;;;;;;;5.25;4.75;;;13.90;99.90;;;-141.84;52.62;20348.38;5050588;28;20224;-69
2022/09/29 10:06:06;;;;;;;3.78;3.38;;;14.20;99.90;;;-141.84;49.83;20393.09;5046336;28;20681;-68
2022/09/29 10:08:38;;;;;;;3.70;3.38;;;14.40;99.90;;;-141.84;48.36;20492.72;5030088;28;20602;-67
2022/09/29 10:11:23;;;;;;;2.65;2.40;;;14.70;99.90;;;-141.84;47.91;20470.34;5044063;28;20236;-69
2022/09/29 10:14:01;;;;;;;2.45;2.25;;;14.80;99.90;;;-141.84;46.55;20529.28;5050104;28;20656;-68
2022/09/29 10:16:43;;;;;;;2.40;2.20;;;14.70;99.90;;;-141.84;47.06;20460.19;5049592;28;20790;-70
2022/09/29 10:19:13;;;;;;;3.22;2.70;;;14.70;99.90;;;-141.84;49.49;20443.91;5050463;28;20459;-68
2022/09/29 10:21:43;;;;;;;3.58;3.28;;;14.40;99.90;;;-141.84;51.59;20334.16;5050210;28;20212;-67
2022/09/29 10:24:27;;;;;;;4.43;4.03;;;14.10;99.90;;;-141.84;52.94;20313.84;5050486;28;20740;-67
2022/09/29 10:27:00;;;;;;;6.88;4.30;;;13.80;99.90;;;-141.84;53.86;20277.25;5049677;28;20638;-67
2022/09/29 10:29:37;;;;;;;4.07;3.78;;;13.50;99.90;;;-141.84;54.91;20212.19;5049904;28;20299;-68
2022/09/29 10:32:09;;;;;;;3.72;3.42;;;13.40;99.90;;;-141.84;56.16;20183.75;5049581;28;20413;-68
2022/09/29 10:34:42;;;;;;;4.88;3.78;;;13.20;99.90;;;-141.84;55.90;20132.94;5049766;28;20240;-68
2022/09/29 10:37:24;;;;;;;3.88;3.58;;;13.00;99.90;;;-141.84;56.34;20124.81;5049527;28;20229;-68